Site contains unofficial IBTrACS data. Visit the IBTrACS Website to access archived data.

1892 NOT_NAMED (1892246N25133)


IBTrACS version v04r00. Visit IBTrACS website for data access.
Please direct all questions to the IBTrACS Q and A forum

Storm track - Intensity - Wind Radii - Intensity Data - Source Data - All data

Summary Information

Storm ID 1892246N25133
Start Sep 1 16Z
Landfall Sep 6 15Z
End Sep 11 04Z
ATCF IDs
Track status Best track data.

Storm track plot

Map of storm track

Intensity plots

No Intensity information for this storm


Radial wind information

No radial wind information for this storm


Position and Intensity Table

BASIN ISO_TIME_________ NATURE LAT LON
degrees north degrees east
WP 1892-09-01 16:00:00 NR 24.50 132.60
WP 18:00:00 NR 24.53 132.56
WP 21:00:00 NR 24.58 132.49
WP 1892-09-02 00:00:00 NR 24.63 132.39
WP 03:00:00 NR 24.68 132.26
WP 04:00:00 NR 24.70 132.20
WP 06:00:00 NR 24.74 132.07
WP 09:00:00 NR 24.81 131.83
WP 12:00:00 NR 24.89 131.57
WP 15:00:00 NR 24.97 131.29
WP 16:00:00 NR 25.00 131.20
WP 18:00:00 NR 25.07 131.03
WP 21:00:00 NR 25.17 130.78
WP 1892-09-03 00:00:00 NR 25.28 130.53
WP 03:00:00 NR 25.37 130.28
WP 04:00:00 NR 25.40 130.20
WP 06:00:00 NR 25.44 130.03
WP 09:00:00 NR 25.50 129.77
WP 12:00:00 NR 25.54 129.52
WP 15:00:00 NR 25.59 129.28
WP 16:00:00 NR 25.60 129.20
WP 18:00:00 NR 25.64 129.06
WP 21:00:00 NR 25.69 128.87
WP 1892-09-04 00:00:00 NR 25.74 128.68
WP 03:00:00 NR 25.79 128.47
WP 04:00:00 NR 25.80 128.40
WP 06:00:00 NR 25.82 128.24
WP 09:00:00 NR 25.85 127.99
WP 12:00:00 NR 25.87 127.71
WP 15:00:00 NR 25.89 127.41
WP 16:00:00 NR 25.90 127.30
WP 18:00:00 NR 25.92 127.07
WP 21:00:00 NR 25.96 126.71
WP 1892-09-05 00:00:00 NR 25.98 126.35
WP 03:00:00 NR 26.00 126.01
WP 04:00:00 NR 26.00 125.90
WP 06:00:00 NR 26.00 125.72
WP 09:00:00 NR 25.99 125.48
WP 12:00:00 NR 25.97 125.25
WP 15:00:00 NR 25.92 125.00
WP 16:00:00 NR 25.90 124.90
WP 18:00:00 NR 25.85 124.70
WP 21:00:00 NR 25.76 124.36
WP 1892-09-06 00:00:00 NR 25.65 123.98
WP 03:00:00 NR 25.54 123.55
WP 04:00:00 NR 25.50 123.40
WP 06:00:00 NR 25.45 123.07
WP 09:00:00 NR 25.37 122.52
WP 12:00:00 NR 25.28 121.95
WP 15:00:00 NR 25.15 121.38
WP 16:00:00 NR 25.10 121.20
WP 18:00:00 NR 24.97 120.88
WP 21:00:00 NR 24.75 120.41
WP 1892-09-07 00:00:00 NR 24.49 119.95
WP 03:00:00 NR 24.20 119.47
WP 04:00:00 NR 24.10 119.30
WP 06:00:00 NR 23.91 118.94
WP 09:00:00 NR 23.60 118.37
WP 12:00:00 NR 23.27 117.78
WP 15:00:00 NR 22.92 117.19
WP 16:00:00 NR 22.80 117.00
WP 18:00:00 NR 22.54 116.59
WP 21:00:00 NR 22.13 115.97
WP 1892-09-08 00:00:00 NR 21.73 115.41
WP 03:00:00 NR 21.39 114.93
WP 04:00:00 NR 21.30 114.80
WP 06:00:00 NR 21.16 114.60
WP 09:00:00 NR 21.02 114.40
WP 12:00:00 NR 20.92 114.26
WP 15:00:00 NR 20.83 114.14
WP 16:00:00 NR 20.80 114.10
WP 18:00:00 NR 20.72 113.96
WP 21:00:00 NR 20.59 113.75
WP 1892-09-09 00:00:00 NR 20.45 113.55
WP 03:00:00 NR 20.27 113.36
WP 04:00:00 NR 20.20 113.30
WP 06:00:00 NR 20.05 113.20
WP 09:00:00 NR 19.78 113.06
WP 12:00:00 NR 19.49 112.94
WP 15:00:00 NR 19.20 112.83
WP 16:00:00 NR 19.10 112.80
WP 18:00:00 NR 18.91 112.73
WP 21:00:00 NR 18.62 112.62
WP 1892-09-10 00:00:00 NR 18.34 112.52
WP 03:00:00 NR 18.08 112.43
WP 04:00:00 NR 18.00 112.40
WP 06:00:00 NR 17.87 112.35
WP 09:00:00 NR 17.70 112.28
WP 12:00:00 NR 17.54 112.21
WP 15:00:00 NR 17.37 112.13
WP 16:00:00 NR 17.30 112.10
WP 18:00:00 NR 17.15 112.03
WP 21:00:00 NR 16.89 111.91
WP 1892-09-11 00:00:00 NR 16.61 111.78
WP 03:00:00 NR 16.30 111.65
WP 04:00:00 NR 16.20 111.60

Source Information

Agency Information
USA
TOKYO
CMA
HKO
NEWDELHI
REUNION
BOM
NADI
WELLINGTON
DS824
TD9636 cons_worldwide_trop_cyclone_18710101-19891231-003:Line=1054
TD9635
NEUMANN
MLC

All available IBTrACS Data

SEASON BASIN SUBBASIN ISO_TIME_________ NATURE LAT LON DIST2LAND LANDFALL IFLAG USA SSHS TD9636 LAT TD9636 LON TD9636 STAGE STORM SPEED STORM DIR
Year degrees north degrees east km km 1 degrees north degrees east kts degrees
1892 WP MM 1892-09-01 16:00:00 NR 24.50 132.60 749 749 __________O___ -1 24.50 132.60 7 1 302
1892 WP MM 18:00:00 NR 24.53 132.56 749 736 __________P___ -1 24.53 132.56 7 2 306
1892 WP MM 21:00:00 NR 24.58 132.49 736 733 __________P___ -1 24.58 132.49 7 2 302
1892 WP MM 1892-09-02 00:00:00 NR 24.63 132.39 733 720 __________P___ -1 24.63 132.39 7 2 296
1892 WP MM 03:00:00 NR 24.68 132.26 720 718 __________P___ -1 24.68 132.26 7 3 293
1892 WP MM 04:00:00 NR 24.70 132.20 718 716 __________O___ -1 24.70 132.20 7 4 290
1892 WP MM 06:00:00 NR 24.74 132.07 716 700 __________P___ -1 24.74 132.07 7 4 288
1892 WP MM 09:00:00 NR 24.81 131.83 700 686 __________P___ -1 24.81 131.83 7 5 288
1892 WP MM 12:00:00 NR 24.89 131.57 686 672 __________P___ -1 24.89 131.57 7 5 288
1892 WP MM 15:00:00 NR 24.97 131.29 672 671 __________P___ -1 24.97 131.29 7 5 289
1892 WP MM 16:00:00 NR 25.00 131.20 671 659 __________O___ -1 25.00 131.20 7 5 292
1892 WP MM 18:00:00 NR 25.07 131.03 659 647 __________P___ -1 25.07 131.03 7 5 294
1892 WP MM 21:00:00 NR 25.17 130.78 647 636 __________P___ -1 25.17 130.78 7 5 295
1892 WP MM 1892-09-03 00:00:00 NR 25.28 130.53 636 626 __________P___ -1 25.28 130.53 7 5 294
1892 WP MM 03:00:00 NR 25.37 130.28 626 626 __________P___ -1 25.37 130.28 7 5 292
1892 WP MM 04:00:00 NR 25.40 130.20 627 627 __________O___ -1 25.40 130.20 7 5 288
1892 WP MM 06:00:00 NR 25.44 130.03 628 617 __________P___ -1 25.44 130.03 7 5 284
1892 WP MM 09:00:00 NR 25.50 129.77 620 620 __________P___ -1 25.50 129.77 7 5 282
1892 WP MM 12:00:00 NR 25.54 129.52 625 614 __________P___ -1 25.54 129.52 7 5 281
1892 WP MM 15:00:00 NR 25.59 129.28 618 618 __________P___ -1 25.59 129.28 7 4 281
1892 WP MM 16:00:00 NR 25.60 129.20 620 620 __________O___ -1 25.60 129.20 7 4 284
1892 WP MM 18:00:00 NR 25.64 129.06 622 614 __________P___ -1 25.64 129.06 7 4 287
1892 WP MM 21:00:00 NR 25.69 128.87 617 617 __________P___ -1 25.69 128.87 7 4 287
1892 WP MM 1892-09-04 00:00:00 NR 25.74 128.68 623 615 __________P___ -1 25.74 128.68 7 4 285
1892 WP MM 03:00:00 NR 25.79 128.47 618 618 __________P___ -1 25.79 128.47 7 4 283
1892 WP MM 04:00:00 NR 25.80 128.40 622 622 __________O___ -1 25.80 128.40 7 4 280
1892 WP MM 06:00:00 NR 25.82 128.24 628 608 __________P___ -1 25.82 128.24 7 5 278
1892 WP MM 09:00:00 NR 25.85 127.99 608 580 __________P___ -1 25.85 127.99 7 5 276
1892 WP MM 12:00:00 NR 25.87 127.71 580 550 __________P___ -1 25.87 127.71 7 5 275
1892 WP MM 15:00:00 NR 25.89 127.41 550 541 __________P___ -1 25.89 127.41 7 6 274
1892 WP MM 16:00:00 NR 25.90 127.30 541 521 __________O___ -1 25.90 127.30 7 6 276
1892 WP MM 18:00:00 NR 25.92 127.07 521 484 __________P___ -1 25.92 127.07 7 6 276
1892 WP MM 21:00:00 NR 25.96 126.71 484 455 __________P___ -1 25.96 126.71 7 7 275
1892 WP MM 1892-09-05 00:00:00 NR 25.98 126.35 455 416 __________P___ -1 25.98 126.35 7 6 274
1892 WP MM 03:00:00 NR 26.00 126.01 416 406 __________P___ -1 26.00 126.01 7 6 272
1892 WP MM 04:00:00 NR 26.00 125.90 406 387 __________O___ -1 26.00 125.90 3 5 271
1892 WP MM 06:00:00 NR 26.00 125.72 387 368 __________P___ -1 26.00 125.72 3 4 269
1892 WP MM 09:00:00 NR 25.99 125.48 368 349 __________P___ -1 25.99 125.48 3 4 265
1892 WP MM 12:00:00 NR 25.97 125.25 349 317 __________P___ -1 25.97 125.25 3 4 261
1892 WP MM 15:00:00 NR 25.92 125.00 317 307 __________P___ -1 25.92 125.00 3 5 258
1892 WP MM 16:00:00 NR 25.90 124.90 307 288 __________O___ -1 25.90 124.90 4 6 255
1892 WP MM 18:00:00 NR 25.85 124.70 288 256 __________P___ -1 25.85 124.70 4 6 253
1892 WP MM 21:00:00 NR 25.76 124.36 256 211 __________P___ -1 25.76 124.36 4 7 253
1892 WP MM 1892-09-06 00:00:00 NR 25.65 123.98 211 170 __________P___ -1 25.65 123.98 4 8 253
1892 WP MM 03:00:00 NR 25.54 123.55 170 151 __________P___ -1 25.54 123.55 4 8 254
1892 WP MM 04:00:00 NR 25.50 123.40 151 119 __________O___ -1 25.50 123.40 4 9 259
1892 WP MM 06:00:00 NR 25.45 123.07 119 67 __________P___ -1 25.45 123.07 4 10 261
1892 WP MM 09:00:00 NR 25.37 122.52 67 30 __________P___ -1 25.37 122.52 4 10 261
1892 WP MM 12:00:00 NR 25.28 121.95 30 0 __________P___ -1 25.28 121.95 4 11 258
1892 WP MM 15:00:00 NR 25.15 121.38 0 0 __________P___ -1 25.15 121.38 4 11 255
1892 WP MM 16:00:00 NR 25.10 121.20 0 0 __________O___ -1 25.10 121.20 4 10 249
1892 WP MM 18:00:00 NR 24.97 120.88 10 10 __________P___ -1 24.97 120.88 4 10 244
1892 WP MM 21:00:00 NR 24.75 120.41 32 32 __________P___ -1 24.75 120.41 4 10 240
1892 WP MM 1892-09-07 00:00:00 NR 24.49 119.95 67 60 __________P___ -1 24.49 119.95 4 10 237
1892 WP MM 03:00:00 NR 24.20 119.47 84 82 __________P___ -1 24.20 119.47 4 11 237
1892 WP MM 04:00:00 NR 24.10 119.30 82 69 __________O___ -1 24.10 119.30 4 11 239
1892 WP MM 06:00:00 NR 23.91 118.94 73 67 __________P___ -1 23.91 118.94 4 12 239
1892 WP MM 09:00:00 NR 23.60 118.37 67 45 __________P___ -1 23.60 118.37 4 12 239
1892 WP MM 12:00:00 NR 23.27 117.78 49 54 __________P___ -1 23.27 117.78 4 13 238
1892 WP MM 15:00:00 NR 22.92 117.19 60 52 __________P___ -1 22.92 117.19 4 13 237
1892 WP MM 16:00:00 NR 22.80 117.00 52 35 __________O___ -1 22.80 117.00 4 14 236
1892 WP MM 18:00:00 NR 22.54 116.59 45 44 __________P___ -1 22.54 116.59 4 14 235
1892 WP MM 21:00:00 NR 22.13 115.97 70 67 __________P___ -1 22.13 115.97 4 14 234
1892 WP MM 1892-09-08 00:00:00 NR 21.73 115.41 103 98 __________P___ -1 21.73 115.41 4 12 233
1892 WP MM 03:00:00 NR 21.39 114.93 118 118 __________P___ -1 21.39 114.93 4 11 233
1892 WP MM 04:00:00 NR 21.30 114.80 123 119 __________O___ -1 21.30 114.80 4 8 233
1892 WP MM 06:00:00 NR 21.16 114.60 126 126 __________P___ -1 21.16 114.60 4 6 233
1892 WP MM 09:00:00 NR 21.02 114.40 145 145 __________P___ -1 21.02 114.40 4 4 232
1892 WP MM 12:00:00 NR 20.92 114.26 156 156 __________P___ -1 20.92 114.26 4 3 232
1892 WP MM 15:00:00 NR 20.83 114.14 167 167 __________P___ -1 20.83 114.14 4 3 232
1892 WP MM 16:00:00 NR 20.80 114.10 167 160 __________O___ -1 20.80 114.10 4 4 236
1892 WP MM 18:00:00 NR 20.72 113.96 169 163 __________P___ -1 20.72 113.96 4 5 237
1892 WP MM 21:00:00 NR 20.59 113.75 167 162 __________P___ -1 20.59 113.75 4 5 235
1892 WP MM 1892-09-09 00:00:00 NR 20.45 113.55 175 172 __________P___ -1 20.45 113.55 4 5 229
1892 WP MM 03:00:00 NR 20.27 113.36 183 181 __________P___ -1 20.27 113.36 4 5 224
1892 WP MM 04:00:00 NR 20.20 113.30 192 192 __________O___ -1 20.20 113.30 4 5 215
1892 WP MM 06:00:00 NR 20.05 113.20 210 207 __________P___ -1 20.05 113.20 4 6 208
1892 WP MM 09:00:00 NR 19.78 113.06 220 199 __________P___ -1 19.78 113.06 4 6 204
1892 WP MM 12:00:00 NR 19.49 112.94 199 194 __________P___ -1 19.49 112.94 4 6 200
1892 WP MM 15:00:00 NR 19.20 112.83 194 194 __________P___ -1 19.20 112.83 4 6 199
1892 WP MM 16:00:00 NR 19.10 112.80 196 190 __________O___ -1 19.10 112.80 4 6 199
1892 WP MM 18:00:00 NR 18.91 112.73 194 194 __________P___ -1 18.91 112.73 4 6 200
1892 WP MM 21:00:00 NR 18.62 112.62 201 201 __________P___ -1 18.62 112.62 4 6 199
1892 WP MM 1892-09-10 00:00:00 NR 18.34 112.52 214 214 __________P___ -1 18.34 112.52 4 6 199
1892 WP MM 03:00:00 NR 18.08 112.43 214 214 __________P___ -1 18.08 112.43 4 5 199
1892 WP MM 04:00:00 NR 18.00 112.40 219 215 __________O___ -1 18.00 112.40 4 4 200
1892 WP MM 06:00:00 NR 17.87 112.35 215 215 __________P___ -1 17.87 112.35 4 4 200
1892 WP MM 09:00:00 NR 17.70 112.28 226 224 __________P___ -1 17.70 112.28 4 4 202
1892 WP MM 12:00:00 NR 17.54 112.21 231 230 __________P___ -1 17.54 112.21 4 4 203
1892 WP MM 15:00:00 NR 17.37 112.13 230 230 __________P___ -1 17.37 112.13 4 4 204
1892 WP MM 16:00:00 NR 17.30 112.10 238 238 __________O___ -1 17.30 112.10 4 5 204
1892 WP MM 18:00:00 NR 17.15 112.03 238 246 __________P___ -1 17.15 112.03 4 5 204
1892 WP MM 21:00:00 NR 16.89 111.91 256 256 __________P___ -1 16.89 111.91 4 6 203
1892 WP MM 1892-09-11 00:00:00 NR 16.61 111.78 277 277 __________P___ -1 16.61 111.78 4 6 204
1892 WP MM 03:00:00 NR 16.30 111.65 289 289 __________P___ -1 16.30 111.65 4 7 203
1892 WP MM 04:00:00 NR 16.20 111.60 299 __________O___ -1 16.20 111.60 4 7 203